createdAt,value
2023-02-05T00:02:24.555Z,-1.75
2023-02-05T00:04:53.498Z,-1.79
2023-02-05T00:07:31.014Z,-1.73
2023-02-05T00:09:59.661Z,-1.78
2023-02-05T00:12:28.401Z,-1.82
2023-02-05T00:14:58.887Z,-1.79
2023-02-05T00:17:27.379Z,-1.82
2023-02-05T00:19:56.815Z,-1.81
2023-02-05T00:22:25.595Z,-1.83
2023-02-05T00:24:54.224Z,-1.81
2023-02-05T00:27:23.041Z,-1.82
2023-02-05T00:29:52.153Z,-1.81
2023-02-05T00:32:22.487Z,-1.86
2023-02-05T00:34:51.298Z,-1.83
2023-02-05T00:37:20.097Z,-1.83
2023-02-05T00:39:49.137Z,-1.79
2023-02-05T00:42:17.883Z,-1.78
2023-02-05T00:44:47.683Z,-1.76
2023-02-05T00:47:16.170Z,-1.76
2023-02-05T00:49:47.007Z,-1.74
2023-02-05T00:52:15.747Z,-1.76
2023-02-05T00:54:46.544Z,-1.71
2023-02-05T00:57:17.636Z,-1.65
2023-02-05T00:59:46.345Z,-1.64
2023-02-05T01:02:15.191Z,-1.59
2023-02-05T01:04:45.642Z,-1.59
2023-02-05T01:07:14.021Z,-1.55
2023-02-05T01:09:42.550Z,-1.55
2023-02-05T01:12:17.215Z,-1.56
2023-02-05T01:14:45.938Z,-1.57
2023-02-05T01:17:14.700Z,-1.58
2023-02-05T01:19:43.415Z,-1.54
2023-02-05T01:22:13.966Z,-1.52
2023-02-05T01:24:42.733Z,-1.54
2023-02-05T01:27:11.908Z,-1.51
2023-02-05T01:29:41.087Z,-1.57
2023-02-05T01:32:10.523Z,-1.61
2023-02-05T01:34:39.574Z,-1.65
2023-02-05T01:37:08.154Z,-1.66
2023-02-05T01:39:38.408Z,-1.67
2023-02-05T01:42:16.784Z,-1.67
2023-02-05T01:44:45.536Z,-1.68
2023-02-05T01:47:14.119Z,-1.73
2023-02-05T01:49:44.277Z,-1.71
2023-02-05T01:52:16.083Z,-1.73
2023-02-05T01:54:49.042Z,-1.74
2023-02-05T01:57:42.705Z,-1.75
2023-02-05T02:00:12.148Z,-1.78
2023-02-05T02:02:40.946Z,-1.78
2023-02-05T02:05:15.163Z,-1.75
2023-02-05T02:07:44.037Z,-1.74
2023-02-05T02:10:19.470Z,-1.77
2023-02-05T02:12:49.799Z,-1.75
2023-02-05T02:15:20.257Z,-1.77
2023-02-05T02:17:51.734Z,-1.79
2023-02-05T02:20:22.102Z,-1.79
2023-02-05T02:23:00.274Z,-1.77
2023-02-05T02:25:54.497Z,-1.77
2023-02-05T02:28:28.730Z,-1.77
2023-02-05T02:31:01.569Z,-1.71
2023-02-05T02:33:36.298Z,-1.66
2023-02-05T02:36:10.761Z,-1.69
2023-02-05T02:38:42.906Z,-1.80
2023-02-05T02:41:16.206Z,-1.80
2023-02-05T02:43:50.550Z,-1.78
2023-02-05T02:46:22.667Z,-1.79
2023-02-05T02:48:53.038Z,-1.75
2023-02-05T02:51:23.059Z,-1.76
2023-02-05T02:53:54.604Z,-1.79
2023-02-05T02:56:28.654Z,-1.77
2023-02-05T02:59:02.707Z,-1.79
2023-02-05T03:01:32.909Z,-1.84
2023-02-05T03:04:06.581Z,-1.87
2023-02-05T03:06:35.427Z,-1.86
2023-02-05T03:09:07.988Z,-1.87
2023-02-05T03:11:36.828Z,-1.95
2023-02-05T03:14:06.758Z,-2.05
2023-02-05T03:16:35.366Z,-2.14
2023-02-05T03:19:07.735Z,-2.17
2023-02-05T03:21:40.240Z,-2.17
2023-02-05T03:24:09.808Z,-2.23
2023-02-05T03:26:39.424Z,-2.33
2023-02-05T03:29:10.763Z,-2.37
2023-02-05T03:31:47.266Z,-2.43
2023-02-05T03:34:26.002Z,-2.39
2023-02-05T03:37:01.680Z,-2.33
2023-02-05T03:39:40.845Z,-2.34
2023-02-05T03:42:17.359Z,-2.36
2023-02-05T03:45:04.916Z,-2.38
2023-02-05T03:47:39.978Z,-2.46
2023-02-05T03:50:16.772Z,-2.43
2023-02-05T03:52:50.051Z,-2.39
2023-02-05T03:55:21.583Z,-2.37
2023-02-05T03:57:53.963Z,-2.36
2023-02-05T04:00:34.504Z,-2.37
2023-02-05T04:03:03.330Z,-2.38
2023-02-05T04:05:32.244Z,-2.39
2023-02-05T04:08:01.019Z,-2.55
2023-02-05T04:10:32.772Z,-2.58
2023-02-05T04:13:01.153Z,-2.59
2023-02-05T04:15:30.108Z,-2.64
2023-02-05T04:18:00.193Z,-2.68
2023-02-05T04:20:28.811Z,-2.73
2023-02-05T04:22:57.441Z,-2.77
2023-02-05T04:25:25.952Z,-2.76
2023-02-05T04:27:55.667Z,-2.83
2023-02-05T04:30:24.556Z,-2.90
2023-02-05T04:32:53.180Z,-3.11
2023-02-05T04:35:32.671Z,-3.30
2023-02-05T04:38:01.381Z,-3.28
2023-02-05T04:40:30.237Z,-3.35
2023-02-05T04:42:58.805Z,-3.37
2023-02-05T04:45:31.465Z,-3.39
2023-02-05T04:48:00.681Z,-3.39
2023-02-05T04:50:30.845Z,-3.44
2023-02-05T04:53:00.339Z,-3.50
2023-02-05T04:55:32.576Z,-3.49
2023-02-05T04:58:01.201Z,-3.50
2023-02-05T05:00:30.927Z,-3.50
2023-02-05T05:02:59.988Z,-3.53
2023-02-05T05:05:31.251Z,-3.54
2023-02-05T05:08:02.263Z,-3.58
2023-02-05T05:10:33.587Z,-3.63
2023-02-05T05:13:02.209Z,-3.67
2023-02-05T05:15:30.795Z,-3.71
2023-02-05T05:17:59.688Z,-3.81
2023-02-05T05:20:30.043Z,-3.81
2023-02-05T05:22:58.528Z,-3.88
2023-02-05T05:25:32.123Z,-3.94
2023-02-05T05:28:02.137Z,-3.97
2023-02-05T05:30:30.941Z,-4.06
2023-02-05T05:32:59.453Z,-4.11
2023-02-05T05:35:28.197Z,-4.11
2023-02-05T05:38:03.017Z,-4.11
2023-02-05T05:40:51.317Z,-4.17
2023-02-05T05:43:38.793Z,-4.23
2023-02-05T05:46:08.520Z,-4.33
2023-02-05T05:48:37.103Z,-4.40
2023-02-05T05:51:06.038Z,-4.51
2023-02-05T05:53:34.895Z,-4.63
2023-02-05T05:56:05.121Z,-4.86
2023-02-05T05:58:34.744Z,-4.67
2023-02-05T06:01:03.364Z,-4.71
2023-02-05T06:03:32.216Z,-4.71
2023-02-05T06:06:02.682Z,-4.75
2023-02-05T06:08:33.715Z,-4.75
2023-02-05T06:11:02.316Z,-4.79
2023-02-05T06:13:32.624Z,-4.87
2023-02-05T06:16:01.163Z,-4.89
2023-02-05T06:18:31.452Z,-4.91
2023-02-05T06:20:59.885Z,-4.94
2023-02-05T06:23:28.737Z,-4.93
2023-02-05T06:25:57.357Z,-5.04
2023-02-05T06:28:25.924Z,-5.01
2023-02-05T06:30:55.909Z,-5.00
2023-02-05T06:33:24.648Z,-5.02
2023-02-05T06:35:55.539Z,-5.02
2023-02-05T06:38:24.296Z,-5.10
2023-02-05T06:44:39.122Z,-5.01
2023-02-05T06:47:09.010Z,-4.94
2023-02-05T06:49:37.520Z,-4.86
2023-02-05T06:52:06.603Z,-4.82
2023-02-05T06:54:35.471Z,-4.74
2023-02-05T06:57:04.315Z,-4.73
2023-02-05T06:59:32.872Z,-4.68
2023-02-05T07:02:01.815Z,-4.60
2023-02-05T07:04:32.342Z,-4.57
2023-02-05T07:07:03.345Z,-4.51
2023-02-05T07:09:32.156Z,-4.46
2023-02-05T07:12:00.693Z,-4.37
2023-02-05T07:14:31.716Z,-4.31
2023-02-05T07:17:00.630Z,-4.26
2023-02-05T07:19:29.603Z,-4.15
2023-02-05T07:22:01.042Z,-4.05
2023-02-05T07:24:32.028Z,-3.96
2023-02-05T07:27:01.034Z,-3.84
2023-02-05T07:29:29.850Z,-3.73
2023-02-05T07:31:58.696Z,-3.62
2023-02-05T07:34:27.598Z,-3.47
2023-02-05T07:36:56.034Z,-3.31
2023-02-05T07:39:30.295Z,-3.19
2023-02-05T07:41:58.992Z,-3.04
2023-02-05T07:44:27.601Z,-2.91
2023-02-05T07:46:56.011Z,-2.85
2023-02-05T07:49:27.494Z,-2.77
2023-02-05T07:51:56.120Z,-2.64
2023-02-05T07:54:26.079Z,-2.50
2023-02-05T07:56:55.554Z,-2.30
2023-02-05T07:59:24.697Z,-2.17
2023-02-05T08:01:53.274Z,-2.07
2023-02-05T08:04:21.816Z,-1.91
2023-02-05T08:06:50.598Z,-1.73
2023-02-05T08:09:19.218Z,-1.53
2023-02-05T08:11:48.757Z,-1.35
2023-02-05T08:14:17.557Z,-1.10
2023-02-05T08:16:46.137Z,-0.30
2023-02-05T08:19:16.681Z,0.44
2023-02-05T08:21:46.378Z,-0.53
2023-02-05T08:24:16.973Z,-0.57
2023-02-05T08:26:45.384Z,-1.04
2023-02-05T08:29:15.727Z,-0.61
2023-02-05T08:31:44.741Z,-0.34
2023-02-05T08:34:13.301Z,0.41
2023-02-05T08:36:42.323Z,2.10
2023-02-05T08:39:11.116Z,4.33
2023-02-05T08:41:39.742Z,5.95
2023-02-05T08:44:08.579Z,8.39
2023-02-05T08:46:49.793Z,9.53
2023-02-05T08:49:19.466Z,11.05
2023-02-05T08:51:48.362Z,10.14
2023-02-05T08:54:19.478Z,10.62
2023-02-05T08:56:56.164Z,9.19
2023-02-05T08:59:27.283Z,8.71
2023-02-05T09:02:17.410Z,8.99
2023-02-05T09:04:50.232Z,10.63
2023-02-05T09:07:19.035Z,12.45
2023-02-05T09:09:48.325Z,13.81
2023-02-05T09:12:16.943Z,13.19
2023-02-05T09:14:45.726Z,12.92
2023-02-05T09:17:16.009Z,12.21
2023-02-05T09:19:44.755Z,13.57
2023-02-05T09:22:13.302Z,14.18
2023-02-05T09:24:41.876Z,15.12
2023-02-05T09:27:14.393Z,14.24
2023-02-05T09:29:43.162Z,12.86
2023-02-05T09:32:12.010Z,13.44
2023-02-05T09:34:44.314Z,14.40
2023-02-05T09:37:12.908Z,15.06
2023-02-05T09:40:19.011Z,14.81
2023-02-05T09:42:45.447Z,14.26
2023-02-05T09:45:28.357Z,14.06
2023-02-05T09:48:04.413Z,13.80
2023-02-05T09:50:38.341Z,15.01
2023-02-05T09:53:08.905Z,14.23
2023-02-05T09:55:40.285Z,12.84
2023-02-05T09:58:10.099Z,13.24
2023-02-05T10:00:46.448Z,14.38
2023-02-05T10:03:23.483Z,15.53
2023-02-05T10:06:06.231Z,15.14
2023-02-05T10:08:42.018Z,15.24
2023-02-05T10:11:19.367Z,14.31
2023-02-05T10:14:02.948Z,11.52
2023-02-05T10:16:42.834Z,10.85
2023-02-05T10:19:25.420Z,10.60
2023-02-05T10:22:05.721Z,8.48
2023-02-05T10:24:46.803Z,9.27
2023-02-05T10:27:19.409Z,10.89
2023-02-05T10:29:56.858Z,11.44
2023-02-05T10:32:26.694Z,12.63
2023-02-05T10:34:59.734Z,10.94
2023-02-05T10:37:37.392Z,12.88
2023-02-05T10:40:18.872Z,13.20
2023-02-05T10:42:51.991Z,12.62
2023-02-05T10:45:22.879Z,13.46
2023-02-05T10:48:02.502Z,15.14
2023-02-05T10:50:38.271Z,15.42
2023-02-05T10:53:08.392Z,16.09
2023-02-05T10:55:38.145Z,17.45
2023-02-05T10:58:26.089Z,18.70
2023-02-05T11:00:54.959Z,18.08
2023-02-05T11:03:24.165Z,18.29
2023-02-05T11:05:52.827Z,18.56
2023-02-05T11:08:39.546Z,17.83
2023-02-05T11:11:19.797Z,17.98
2023-02-05T11:13:52.609Z,18.11
2023-02-05T11:16:21.460Z,17.83
2023-02-05T11:18:58.843Z,15.36
2023-02-05T11:21:49.447Z,14.55
2023-02-05T11:24:30.227Z,12.70
2023-02-05T11:27:28.189Z,13.49
2023-02-05T11:29:59.217Z,14.73
2023-02-05T11:32:36.907Z,14.36
2023-02-05T11:35:19.700Z,15.28
2023-02-05T11:37:50.252Z,15.89
2023-02-05T11:40:29.002Z,15.60
2023-02-05T11:43:02.311Z,14.74
2023-02-05T11:45:36.203Z,13.51
2023-02-05T11:48:32.622Z,10.88
2023-02-05T11:51:06.595Z,8.97
2023-02-05T11:53:37.440Z,7.50
2023-02-05T11:56:12.084Z,7.14
2023-02-05T11:58:40.823Z,6.58
2023-02-05T12:01:24.218Z,6.37
2023-02-05T12:04:00.413Z,7.56
2023-02-05T12:06:33.921Z,8.97
2023-02-05T12:09:02.825Z,11.85
2023-02-05T12:12:17.232Z,12.66
2023-02-05T12:14:50.897Z,11.92
2023-02-05T12:17:30.414Z,12.60
2023-02-05T12:20:11.625Z,12.24
2023-02-05T12:22:58.517Z,11.63
2023-02-05T12:25:30.371Z,12.12
2023-02-05T12:28:11.461Z,12.57
2023-02-05T12:30:52.754Z,13.15
2023-02-05T12:33:41.573Z,13.96
2023-02-05T12:36:24.092Z,14.50
2023-02-05T12:39:21.432Z,12.97
2023-02-05T12:41:55.047Z,13.93
2023-02-05T12:44:36.556Z,15.60
2023-02-05T12:47:14.334Z,15.59
2023-02-05T12:49:57.990Z,15.59
2023-02-05T12:52:42.429Z,15.14
2023-02-05T12:55:21.441Z,15.46
2023-02-05T12:57:55.066Z,15.16
2023-02-05T13:00:29.626Z,15.61
2023-02-05T13:03:06.031Z,15.05
2023-02-05T13:05:36.502Z,15.75
2023-02-05T13:08:08.846Z,16.06
2023-02-05T13:10:45.338Z,16.90
2023-02-05T13:13:17.766Z,15.67
2023-02-05T13:15:59.993Z,14.48
2023-02-05T13:18:31.507Z,16.37
2023-02-05T13:21:20.258Z,16.96
2023-02-05T13:24:07.022Z,16.47
2023-02-05T13:26:57.579Z,17.32
2023-02-05T13:29:30.576Z,17.22
2023-02-05T13:32:15.366Z,17.28
2023-02-05T13:34:44.954Z,16.90
2023-02-05T13:37:29.834Z,17.27
2023-02-05T13:40:28.925Z,16.91
2023-02-05T13:43:41.946Z,16.48
2023-02-05T13:46:25.845Z,15.95
2023-02-05T13:49:36.952Z,15.56
2023-02-05T13:52:20.009Z,15.70
2023-02-05T13:55:14.559Z,15.71
2023-02-05T13:58:20.841Z,16.50
2023-02-05T14:01:01.042Z,16.62
2023-02-05T14:03:38.485Z,15.95
2023-02-05T14:06:29.814Z,15.34
2023-02-05T14:09:19.429Z,15.11
2023-02-05T14:11:54.781Z,13.92
2023-02-05T14:14:36.556Z,14.40
2023-02-05T14:17:43.667Z,12.94
2023-02-05T14:20:34.605Z,10.73
2023-02-05T14:23:05.133Z,9.20
2023-02-05T14:26:11.942Z,7.85
2023-02-05T14:28:51.855Z,6.55
2023-02-05T14:31:55.573Z,6.61
2023-02-05T14:34:48.881Z,7.57
2023-02-05T14:37:26.642Z,9.04
2023-02-05T14:39:55.283Z,9.89
2023-02-05T14:42:29.545Z,9.33
2023-02-05T14:45:00.778Z,8.57
2023-02-05T14:47:33.337Z,8.27
2023-02-05T14:50:05.492Z,7.97
2023-02-05T14:52:36.119Z,7.27
2023-02-05T14:55:08.738Z,7.54
2023-02-05T14:57:49.319Z,7.90
2023-02-05T15:00:35.381Z,8.75
2023-02-05T15:03:24.531Z,8.64
2023-02-05T15:06:04.888Z,7.31
2023-02-05T15:08:47.531Z,5.88
2023-02-05T15:11:30.456Z,4.65
2023-02-05T15:14:36.954Z,3.64
2023-02-05T15:17:43.819Z,3.02
2023-02-05T15:20:30.932Z,2.67
2023-02-05T15:23:07.860Z,2.37
2023-02-05T15:25:42.692Z,2.16
2023-02-05T15:28:48.710Z,1.93
2023-02-05T15:31:23.944Z,1.73
2023-02-05T15:33:59.934Z,1.57
2023-02-05T15:36:38.247Z,1.53
2023-02-05T15:39:35.377Z,1.44
2023-02-05T15:42:05.451Z,1.07
2023-02-05T15:44:35.668Z,1.21
2023-02-05T15:47:09.868Z,1.06
2023-02-05T15:49:42.209Z,0.83
2023-02-05T15:52:18.392Z,0.51
2023-02-05T15:54:47.102Z,0.17
2023-02-05T15:57:20.632Z,-0.08
2023-02-05T15:59:49.290Z,-0.37
2023-02-05T16:02:21.378Z,-0.60
2023-02-05T16:05:09.843Z,-0.67
2023-02-05T16:07:42.632Z,-0.69
2023-02-05T16:10:20.863Z,-0.73
2023-02-05T16:12:59.986Z,-0.88
2023-02-05T16:15:35.461Z,-1.06
2023-02-05T16:18:09.488Z,-1.13
2023-02-05T16:20:45.081Z,-1.27
2023-02-05T16:23:21.303Z,-1.37
2023-02-05T16:25:53.449Z,-1.46
2023-02-05T16:28:24.390Z,-1.52
2023-02-05T16:30:56.828Z,-1.66
2023-02-05T16:33:32.672Z,-1.76
2023-02-05T16:36:03.126Z,-1.86
2023-02-05T16:38:31.850Z,-1.89
2023-02-05T16:41:02.171Z,-2.11
2023-02-05T16:43:33.419Z,-1.87
2023-02-05T16:46:34.144Z,-1.81
2023-02-05T16:49:05.046Z,-1.79
2023-02-05T16:51:37.525Z,-1.76
2023-02-05T16:54:28.467Z,-1.80
2023-02-05T16:57:00.977Z,-1.91
2023-02-05T17:00:30.737Z,-1.99
2023-02-05T17:03:01.160Z,-1.97
2023-02-05T17:05:34.377Z,-2.01
2023-02-05T17:08:07.068Z,-2.03
2023-02-05T17:10:50.077Z,-2.02
2023-02-05T17:13:29.553Z,-2.17
2023-02-05T17:15:58.459Z,-2.16
2023-02-05T17:18:32.570Z,-2.17
2023-02-05T17:21:24.237Z,-2.23
2023-02-05T17:23:53.180Z,-2.35
2023-02-05T17:26:22.465Z,-2.39
2023-02-05T17:28:55.690Z,-2.43
2023-02-05T17:31:26.675Z,-2.36
2023-02-05T17:33:56.341Z,-2.42
2023-02-05T17:36:34.916Z,-2.54
2023-02-05T17:39:05.870Z,-2.62
2023-02-05T17:41:55.598Z,-2.69
2023-02-05T17:44:24.195Z,-2.97
2023-02-05T17:46:54.390Z,-3.07
2023-02-05T17:49:23.231Z,-3.18
2023-02-05T17:51:53.184Z,-3.33
2023-02-05T17:55:22.676Z,-3.48
2023-02-05T17:57:51.207Z,-3.57
2023-02-05T18:00:21.760Z,-3.58
2023-02-05T18:02:50.725Z,-3.63
2023-02-05T18:05:20.628Z,-3.63
2023-02-05T18:07:52.588Z,-3.65
2023-02-05T18:10:23.831Z,-3.62
2023-02-05T18:12:52.724Z,-3.64
2023-02-05T18:15:23.588Z,-3.57
2023-02-05T18:17:52.381Z,-3.62
2023-02-05T18:20:21.568Z,-3.65
2023-02-05T18:22:52.070Z,-3.72
2023-02-05T18:25:21.132Z,-3.80
2023-02-05T18:27:50.448Z,-3.97
2023-02-05T18:30:19.008Z,-4.10
2023-02-05T18:32:48.180Z,-4.18
2023-02-05T18:35:17.059Z,-4.17
2023-02-05T18:37:46.388Z,-4.19
2023-02-05T18:40:16.700Z,-4.22
2023-02-05T18:42:47.301Z,-4.22
2023-02-05T18:45:17.180Z,-4.39
2023-02-05T18:47:46.771Z,-4.39
2023-02-05T18:50:16.601Z,-4.41
2023-02-05T18:52:45.746Z,-4.35
2023-02-05T18:55:18.667Z,-4.29
2023-02-05T18:57:52.960Z,-4.23
2023-02-05T19:00:25.046Z,-4.19
2023-02-05T19:02:56.361Z,-4.26
2023-02-05T19:05:27.091Z,-4.28
2023-02-05T19:08:01.994Z,-4.69
2023-02-05T19:10:34.473Z,-4.42
2023-02-05T19:13:03.521Z,-4.42
2023-02-05T19:15:33.146Z,-4.61
2023-02-05T19:18:01.978Z,-4.75
2023-02-05T19:20:35.038Z,-4.83
2023-02-05T19:23:07.171Z,-4.78
2023-02-05T19:25:42.478Z,-4.72
2023-02-05T19:28:11.450Z,-4.66
2023-02-05T19:30:39.905Z,-4.61
2023-02-05T19:33:08.535Z,-4.56
2023-02-05T19:35:37.342Z,-4.66
2023-02-05T19:38:06.206Z,-4.75
2023-02-05T19:40:36.566Z,-4.83
2023-02-05T19:43:07.337Z,-4.94
2023-02-05T19:45:38.180Z,-5.05
2023-02-05T19:48:07.339Z,-5.24
2023-02-05T19:50:45.131Z,-5.25
2023-02-05T19:53:14.348Z,-5.42
2023-02-05T19:55:45.860Z,-5.55
2023-02-05T19:58:18.456Z,-5.72
2023-02-05T20:00:50.106Z,-5.77
2023-02-05T20:03:30.432Z,-5.90
2023-02-05T20:06:01.249Z,-6.00
2023-02-05T20:08:32.445Z,-6.04
2023-02-05T20:11:03.990Z,-6.11
2023-02-05T20:13:37.176Z,-6.21
2023-02-05T20:16:08.082Z,-6.29
2023-02-05T20:18:36.870Z,-6.28
2023-02-05T20:21:07.154Z,-6.32
2023-02-05T20:23:35.891Z,-6.39
2023-02-05T20:26:08.275Z,-6.37
2023-02-05T20:29:00.153Z,-6.42
2023-02-05T20:31:34.851Z,-6.41
2023-02-05T20:34:04.598Z,-6.44
2023-02-05T20:36:38.430Z,-6.47
2023-02-05T20:39:09.253Z,-6.47
2023-02-05T20:41:38.043Z,-6.53
2023-02-05T20:44:08.584Z,-6.67
2023-02-05T20:47:02.268Z,-6.51
2023-02-05T20:49:31.260Z,-6.50
2023-02-05T20:52:01.844Z,-6.49
2023-02-05T20:54:33.295Z,-6.55
2023-02-05T20:57:01.936Z,-6.68
2023-02-05T20:59:38.692Z,-6.68
2023-02-05T21:02:11.384Z,-6.74
2023-02-05T21:04:40.151Z,-6.65
2023-02-05T21:07:08.841Z,-6.61
2023-02-05T21:09:39.379Z,-6.64
2023-02-05T21:12:10.139Z,-6.76
2023-02-05T21:14:40.993Z,-6.73
2023-02-05T21:17:10.743Z,-6.64
2023-02-05T21:20:29.045Z,-6.60
2023-02-05T21:23:14.663Z,-6.64
2023-02-05T21:25:43.508Z,-6.73
2023-02-05T21:28:12.750Z,-6.78
2023-02-05T21:30:51.491Z,-6.89
2023-02-05T21:33:20.153Z,-7.06
2023-02-05T21:35:48.891Z,-7.14
2023-02-05T21:38:17.556Z,-7.14
2023-02-05T21:40:46.608Z,-7.09
2023-02-05T21:43:18.054Z,-7.02
2023-02-05T21:45:47.924Z,-7.04
2023-02-05T21:48:16.488Z,-7.08
2023-02-05T21:50:44.893Z,-7.05
2023-02-05T21:53:16.382Z,-7.05
2023-02-05T21:55:45.267Z,-7.15
2023-02-05T21:58:13.860Z,-7.31
2023-02-05T22:00:45.273Z,-7.28
2023-02-05T22:03:15.630Z,-7.22
2023-02-05T22:05:47.315Z,-7.15
2023-02-05T22:08:16.197Z,-7.12
2023-02-05T22:10:45.099Z,-7.09
2023-02-05T22:13:13.892Z,-7.11
2023-02-05T22:15:44.772Z,-7.21
2023-02-05T22:18:14.776Z,-7.26
2023-02-05T22:20:44.529Z,-7.33
2023-02-05T22:23:13.505Z,-7.33
2023-02-05T22:25:47.690Z,-7.42
2023-02-05T22:28:16.272Z,-7.55
2023-02-05T22:30:47.728Z,-7.64
2023-02-05T22:33:20.792Z,-7.66
2023-02-05T22:35:53.388Z,-7.62
2023-02-05T22:38:21.957Z,-7.58
2023-02-05T22:40:50.581Z,-7.62
2023-02-05T22:43:19.138Z,-7.57
2023-02-05T22:49:41.031Z,-7.68
2023-02-05T22:52:09.675Z,-7.68
2023-02-05T22:54:38.262Z,-7.65
2023-02-05T22:57:11.393Z,-7.68
2023-02-05T22:59:40.060Z,-7.75
2023-02-05T23:02:17.377Z,-7.86
2023-02-05T23:04:47.667Z,-7.94
2023-02-05T23:07:16.488Z,-7.97
2023-02-05T23:09:46.261Z,-7.93
2023-02-05T23:12:15.036Z,-7.86
2023-02-05T23:14:45.653Z,-7.94
2023-02-05T23:17:14.381Z,-7.90
2023-02-05T23:19:43.060Z,-7.90
2023-02-05T23:22:12.959Z,-7.83
2023-02-05T23:24:42.110Z,-7.81
2023-02-05T23:27:10.857Z,-7.82
2023-02-05T23:29:39.835Z,-7.90
2023-02-05T23:32:15.085Z,-7.99
2023-02-05T23:34:43.905Z,-8.15
2023-02-05T23:37:14.020Z,-8.20
2023-02-05T23:39:43.563Z,-8.19
2023-02-05T23:42:12.170Z,-8.29
2023-02-05T23:44:40.741Z,-8.36
2023-02-05T23:47:09.607Z,-8.31
2023-02-05T23:49:38.277Z,-8.30
2023-02-05T23:52:32.968Z,-8.34
2023-02-05T23:55:01.793Z,-8.33
2023-02-05T23:57:30.675Z,-8.41
2023-02-05T23:59:59.458Z,-8.50
